San Jose, CA (95101)

3:52 AM PST on January 19, 2017 (GMT -0800)
San Jose Plant51 | | Change Station
Active Advisory: Small Craft Advisory

Elev 102 ft 37.33 °N, 121.90 °W | Updated 10 seconds ago

Mostly Cloudy
Mostly Cloudy
50.9 °F
Feels Like 50.9 °F
N
2.0
Wind Variable Wind from SSE
Gusts 4.0 mph

Today
High -- | Low -- °F
--% Chance of Precip.
Yesterday
High -- | Low -- °F
Precip. -- in
Pressure 29.85 in
Visibility 10.0 miles
Clouds Mostly Cloudy 4500 ft
Mostly Cloudy 6000 ft
Dew Point 46 °F
Humidity 84%
Rainfall 0.02 in
Snow Depth Not available.
7:18 AM 5:18 PM
Waning Gibbous, 54% visible
METAR KSJC 191053Z AUTO 12008KT 10SM BKN045 BKN060 10/08 A2985 RMK AO2 SLP108 T01000078
Pressure 29.85 in
Visibility 10.0 miles
Clouds Mostly Cloudy 4500 ft
Mostly Cloudy 6000 ft
Dew Point 46 °F
Humidity 84%
Rainfall 0.02 in
Snow Depth Not available.
7:18 AM 5:18 PM
Waning Gibbous, 54% visible
METAR KSJC 191053Z AUTO 12008KT 10SM BKN045 BKN060 10/08 A2985 RMK AO2 SLP108 T01000078

Get Your Daily Forecast Email!

Thanks for signing up!

Be on the lookout for a verification email in your inbox.

You'll start receiving the daily forecast at 8 AM.

×

10-Day Weather Forecast

Almanac

Astronomy

Jan. 19, 2017 Rise Set
Actual Time
Civil Twilight
Nautical Twilight
Astronomical Twilight
Moon
Length of Visible Light
Length of Day
Tomorrow will be .
, % of the Moon is Illuminated

Today's Extremes

State Highs State Lows

Community

WunderPhotos

Upload Photos

1,962,540 photos uploaded!

WunderBlog® & News

Nearby

Air Quality

  Air Quality AQ Index Pollutant
Not available.

Snow Depth

Station Depth Elevation

Earthquake Activity

City Distance Mag. Time & Date
Minimum magnitude displayed is 2.5.

Coastal Water Temperatures

Place Temperature

Stations

Nearby Weather Stations

Station Location Temp. Windchill Dew Point Humidity Wind Precip. Elev Updated Type
                   

Watches & Warnings

Small Craft Advisory
Issued: 2:36 AM PST Jan. 19, 2017 – National Weather Service

... Small Craft Advisory in effect from 3 am to noon PST Friday...
... Small Craft Advisory is cancelled...

The National Weather Service San Francisco has issued a Small
Craft Advisory... which is in effect from 3 am to noon PST Friday.

* Winds and waves: see the coastal waters forecast (cwfmtr) or our
marine Page at http://weather.Gov/sanfrancisco/marine.Php for
more details.

Precautionary/preparedness actions...

A Small Craft Advisory means that wind speeds of 21 to 33 knots
are expected to produce hazardous wave conditions to small craft.
Inexperienced mariners... especially those operating smaller
vessels should avoid navigating in these conditions.